Time;durP1;ratioP1;P1;durP2;ratioP2;P2;SDS_P1;SDS_P2;PMS_P1;PMS_P2;Temp;Humidity;BMP_temperature;BMP_pressure;BME280_temperature;BME280_humidity;BME280_pressure;Samples;Min_cycle;Max_cycle;Signal;HPM_P1;HPM_P2
2021/07/12 00:02:20;;;;;;;11.73;10.77;;;18.60;99.90;;;;;;5058572;28;20183;-80
2021/07/12 00:04:46;;;;;;;11.50;10.60;;;18.70;99.90;;;;;;5071149;28;20207;-81
2021/07/12 00:07:11;;;;;;;11.40;10.40;;;18.70;99.90;;;;;;5095018;28;20337;-81
2021/07/12 00:09:37;;;;;;;11.73;10.63;;;18.60;99.90;;;;;;5092878;28;20272;-81
2021/07/12 00:12:03;;;;;;;11.57;10.67;;;18.60;99.90;;;;;;5080915;28;20188;-81
2021/07/12 00:14:29;;;;;;;11.80;10.70;;;18.60;99.90;;;;;;5058972;28;20204;-81
2021/07/12 00:16:55;;;;;;;12.23;11.03;;;18.60;99.90;;;;;;5058380;28;20441;-81
2021/07/12 00:19:20;;;;;;;11.53;10.10;;;18.60;99.90;;;;;;5088043;28;20191;-79
2021/07/12 00:21:46;;;;;;;11.43;10.53;;;18.60;99.90;;;;;;5078942;28;20189;-80
2021/07/12 00:24:12;;;;;;;11.20;10.30;;;18.50;99.90;;;;;;5063091;28;20576;-80
2021/07/12 00:26:38;;;;;;;11.07;10.17;;;18.50;99.90;;;;;;5046172;28;20546;-80
2021/07/12 00:29:04;;;;;;;11.97;11.07;;;18.50;99.90;;;;;;5069031;28;20211;-79
2021/07/12 00:31:29;;;;;;;12.50;11.27;;;18.50;99.90;;;;;;5068144;28;20670;-81
2021/07/12 00:33:55;;;;;;;12.00;10.90;;;18.40;99.90;;;;;;5056391;28;20295;-81
2021/07/12 00:36:21;;;;;;;11.53;10.63;;;18.40;99.90;;;;;;5090466;28;20181;-81
2021/07/12 00:38:46;;;;;;;13.10;11.90;;;18.30;99.90;;;;;;5045823;28;20196;-81
2021/07/12 00:41:12;;;;;;;11.67;10.47;;;18.30;99.90;;;;;;5075915;28;20181;-80
2021/07/12 00:43:39;;;;;;;12.67;11.67;;;18.30;99.90;;;;;;5078210;28;20184;-81
2021/07/12 00:46:08;;;;;;;11.60;10.40;;;18.20;99.90;;;;;;5086600;28;20208;-81
2021/07/12 00:48:34;;;;;;;11.97;10.73;;;18.20;99.90;;;;;;5068750;28;20434;-80
2021/07/12 00:51:00;;;;;;;12.80;11.60;;;18.20;99.90;;;;;;5087063;28;20434;-80
2021/07/12 00:53:27;;;;;;;11.43;10.53;;;18.10;99.90;;;;;;5062052;28;20422;-81
2021/07/12 00:55:52;;;;;;;13.07;11.87;;;18.00;99.90;;;;;;5073985;28;21005;-81
2021/07/12 00:58:21;;;;;;;12.00;11.00;;;17.90;99.90;;;;;;5079353;28;20418;-79
2021/07/12 01:00:49;;;;;;;11.77;10.83;;;17.90;99.90;;;;;;5083803;28;20192;-80
2021/07/12 01:03:15;;;;;;;12.63;11.53;;;17.80;99.90;;;;;;5094745;28;20986;-80
2021/07/12 01:05:42;;;;;;;12.53;11.43;;;17.70;99.90;;;;;;5056014;28;21047;-80
2021/07/12 01:08:07;;;;;;;12.20;11.00;;;17.70;99.90;;;;;;5093133;28;20419;-81
2021/07/12 01:10:34;;;;;;;11.60;10.70;;;17.60;99.90;;;;;;5093881;28;20410;-81
2021/07/12 01:13:29;;;;;;;11.67;10.40;;;17.70;99.90;;;;;;5068636;28;20588;-81
2021/07/12 01:16:24;;;;;;;11.37;10.47;;;17.60;99.90;;;;;;5091858;28;20544;-81
2021/07/12 01:19:19;;;;;;;12.30;11.23;;;17.60;99.90;;;;;;5069173;28;20497;-80
2021/07/12 01:22:33;;;;;;;12.60;11.50;;;17.50;99.90;;;;;;5077144;28;20835;-77
2021/07/12 01:25:27;;;;;;;11.70;10.70;;;17.50;99.90;;;;;;5064814;28;20541;-81
2021/07/12 01:28:17;;;;;;;12.13;11.03;;;17.50;99.90;;;;;;5082614;28;20859;-81
2021/07/12 01:31:15;;;;;;;13.13;11.00;;;17.50;99.90;;;;;;5078155;28;20426;-81
2021/07/12 01:34:08;;;;;;;12.10;11.10;;;17.40;99.90;;;;;;5068856;28;20422;-80
2021/07/12 01:36:59;;;;;;;11.97;10.97;;;17.50;99.90;;;;;;5088925;28;20407;-83
2021/07/12 01:39:36;;;;;;;11.87;10.90;;;17.50;99.90;;;;;;5069963;28;20434;-81
2021/07/12 01:42:14;;;;;;;12.47;11.37;;;17.40;99.90;;;;;;5070594;28;20477;-81
2021/07/12 01:45:00;;;;;;;12.17;11.07;;;17.40;99.90;;;;;;5085378;28;20513;-80
2021/07/12 01:47:41;;;;;;;11.77;10.70;;;17.40;99.90;;;;;;5072267;28;20442;-80
2021/07/12 01:50:26;;;;;;;12.27;11.17;;;17.40;99.90;;;;;;5088615;28;20839;-80
2021/07/12 01:53:00;;;;;;;12.83;11.63;;;17.30;99.90;;;;;;5072978;28;20453;-81
2021/07/12 01:55:51;;;;;;;13.40;12.07;;;17.20;99.90;;;;;;5083006;28;20446;-80
2021/07/12 01:58:36;;;;;;;13.57;12.37;;;17.20;99.90;;;;;;5087612;28;20822;-81
2021/07/12 02:01:02;;;;;;;11.70;10.63;;;17.10;99.90;;;;;;5086510;28;20611;-81
2021/07/12 02:03:30;;;;;;;10.63;9.73;;;17.10;99.90;;;;;;5088026;28;20410;-81
2021/07/12 02:06:00;;;;;;;12.07;11.03;;;17.00;99.90;;;;;;5091864;28;20465;-81
2021/07/12 02:08:27;;;;;;;12.47;11.20;;;17.00;99.90;;;;;;5065764;28;20920;-80
2021/07/12 02:10:56;;;;;;;12.53;11.50;;;17.00;99.90;;;;;;5089141;28;20986;-80
2021/07/12 02:13:21;;;;;;;11.90;10.90;;;17.00;99.90;;;;;;5064973;28;20522;-80
2021/07/12 02:15:49;;;;;;;13.83;11.50;;;16.90;99.90;;;;;;5071794;28;20516;-79
2021/07/12 02:18:16;;;;;;;12.67;11.57;;;16.90;99.90;;;;;;5074545;28;20275;-80
2021/07/12 02:20:46;;;;;;;11.80;10.90;;;16.80;99.90;;;;;;5067440;28;20414;-80
2021/07/12 02:23:13;;;;;;;12.33;11.23;;;16.80;99.90;;;;;;5079189;28;20996;-80
2021/07/12 02:25:41;;;;;;;12.50;11.50;;;16.80;99.90;;;;;;5089279;28;20458;-81
2021/07/12 02:28:09;;;;;;;12.37;11.20;;;16.80;99.90;;;;;;5062403;28;20506;-81
2021/07/12 02:30:35;;;;;;;11.80;10.70;;;16.80;99.90;;;;;;5067675;28;20534;-81
2021/07/12 02:33:01;;;;;;;12.90;11.10;;;16.80;99.90;;;;;;5071754;28;20481;-80
2021/07/12 02:35:28;;;;;;;12.40;11.30;;;16.80;99.90;;;;;;5063891;28;20696;-81
2021/07/12 02:37:56;;;;;;;12.67;11.37;;;16.80;99.90;;;;;;5092501;28;20767;-81
2021/07/12 02:40:22;;;;;;;12.33;11.30;;;16.80;99.90;;;;;;5091072;28;20461;-81
2021/07/12 02:42:52;;;;;;;13.00;11.80;;;16.90;99.90;;;;;;5091244;28;20423;-81
2021/07/12 02:45:19;;;;;;;13.00;11.67;;;16.90;99.90;;;;;;5061011;28;20442;-81
2021/07/12 02:47:46;;;;;;;12.60;11.50;;;16.90;99.90;;;;;;5053640;28;20427;-81
2021/07/12 02:50:12;;;;;;;13.07;11.77;;;16.90;99.90;;;;;;5071353;28;20415;-81
2021/07/12 02:53:06;;;;;;;12.53;11.33;;;17.00;99.90;;;;;;5091004;28;20419;-80
2021/07/12 02:55:32;;;;;;;11.33;10.33;;;17.00;99.90;;;;;;5081762;28;20586;-80
2021/07/12 02:57:58;;;;;;;12.33;11.23;;;16.90;99.90;;;;;;5087159;28;20488;-80
2021/07/12 03:00:24;;;;;;;11.43;10.43;;;16.90;99.90;;;;;;5081950;28;20895;-81
2021/07/12 03:02:50;;;;;;;13.30;11.93;;;16.80;99.90;;;;;;5051122;28;20435;-80
2021/07/12 03:05:16;;;;;;;11.80;10.80;;;16.70;99.90;;;;;;5090607;28;20239;-80
2021/07/12 03:08:04;;;;;;;11.50;10.50;;;16.70;99.90;;;;;;5058018;28;20195;-82
2021/07/12 03:10:32;;;;;;;12.00;11.00;;;16.60;99.90;;;;;;5084381;28;20279;-80
2021/07/12 03:13:01;;;;;;;13.50;12.30;;;16.60;99.90;;;;;;5061272;28;20418;-81
2021/07/12 03:15:42;;;;;;;13.70;12.50;;;16.50;99.90;;;;;;5092265;28;20478;-80
2021/07/12 03:18:28;;;;;;;12.90;11.80;;;16.50;99.90;;;;;;5092118;28;20441;-80
2021/07/12 03:20:56;;;;;;;11.93;11.03;;;16.50;99.90;;;;;;5069135;28;20930;-80
2021/07/12 03:23:22;;;;;;;13.10;12.00;;;16.40;99.90;;;;;;5094900;28;20460;-80
2021/07/12 03:25:53;;;;;;;12.73;11.63;;;16.30;99.90;;;;;;5077278;28;20462;-80
2021/07/12 03:28:20;;;;;;;12.70;11.40;;;16.30;99.90;;;;;;5081705;28;20423;-81
2021/07/12 03:30:48;;;;;;;13.30;12.13;;;16.30;99.90;;;;;;5080740;28;20945;-81
2021/07/12 03:33:19;;;;;;;14.33;13.03;;;16.20;99.90;;;;;;5093915;28;20442;-81
2021/07/12 03:35:48;;;;;;;16.97;15.27;;;16.20;99.90;;;;;;5091466;28;20556;-81
2021/07/12 03:38:16;;;;;;;14.33;13.07;;;16.30;99.90;;;;;;5092771;28;20851;-82
2021/07/12 03:40:43;;;;;;;14.90;13.60;;;16.30;99.90;;;;;;5045464;28;20434;-81
2021/07/12 03:43:10;;;;;;;15.27;13.73;;;16.40;99.90;;;;;;5089394;28;20411;-80
2021/07/12 03:45:40;;;;;;;15.50;13.97;;;16.50;99.90;;;;;;5084168;28;20501;-82
2021/07/12 03:48:07;;;;;;;14.87;13.47;;;16.50;99.90;;;;;;5091742;28;20422;-81
2021/07/12 03:50:33;;;;;;;15.10;13.70;;;16.60;99.90;;;;;;5069855;28;20430;-81
2021/07/12 03:53:02;;;;;;;15.13;13.60;;;16.50;99.90;;;;;;5043290;28;20415;-80
2021/07/12 03:55:29;;;;;;;15.73;14.30;;;16.50;99.90;;;;;;5054363;28;20466;-81
2021/07/12 03:57:58;;;;;;;14.80;13.30;;;16.50;99.90;;;;;;5093264;28;20422;-81
2021/07/12 04:00:27;;;;;;;15.87;14.27;;;16.50;99.90;;;;;;5082947;28;20420;-79
2021/07/12 04:02:54;;;;;;;16.63;15.03;;;16.50;99.90;;;;;;5092651;28;20438;-80
2021/07/12 04:05:24;;;;;;;15.40;13.90;;;16.50;99.90;;;;;;5085570;28;20548;-78
2021/07/12 04:07:51;;;;;;;15.13;13.73;;;16.50;99.90;;;;;;5092236;28;20406;-81
2021/07/12 04:10:18;;;;;;;18.27;14.50;;;16.60;99.90;;;;;;5094032;28;20764;-80
2021/07/12 04:12:45;;;;;;;16.40;14.70;;;16.60;99.90;;;;;;5055136;28;20424;-81
2021/07/12 04:15:12;;;;;;;15.63;14.20;;;16.60;99.90;;;;;;5068230;28;20533;-80
2021/07/12 04:17:39;;;;;;;19.80;14.70;;;16.70;99.90;;;;;;5074904;28;20418;-81
2021/07/12 04:20:06;;;;;;;15.70;14.23;;;16.80;99.90;;;;;;5069944;28;20893;-81
2021/07/12 04:22:31;;;;;;;15.17;13.67;;;16.90;99.90;;;;;;5059028;28;20420;-80
2021/07/12 04:24:57;;;;;;;16.23;14.60;;;16.90;99.90;;;;;;5093026;28;20446;-80
2021/07/12 04:27:23;;;;;;;15.73;14.20;;;16.90;99.90;;;;;;5094354;28;20227;-81
2021/07/12 04:29:48;;;;;;;16.57;15.00;;;17.00;99.90;;;;;;5093939;28;20189;-81
2021/07/12 04:32:14;;;;;;;15.73;14.13;;;16.90;99.90;;;;;;5078695;28;20196;-81
2021/07/12 04:34:40;;;;;;;16.07;14.57;;;17.00;99.90;;;;;;5066301;28;20820;-81
2021/07/12 04:37:06;;;;;;;15.70;14.20;;;17.00;99.90;;;;;;5085134;28;20267;-81
2021/07/12 04:39:32;;;;;;;14.87;13.50;;;17.00;99.90;;;;;;5092701;28;20190;-81
2021/07/12 04:41:58;;;;;;;15.77;14.27;;;17.10;99.90;;;;;;5088205;28;20451;-80
2021/07/12 04:44:23;;;;;;;16.23;14.53;;;17.10;99.90;;;;;;5076214;28;20208;-81
2021/07/12 04:46:50;;;;;;;17.03;14.47;;;17.20;99.90;;;;;;5079447;28;20291;-80
2021/07/12 04:49:16;;;;;;;15.77;13.57;;;17.20;99.90;;;;;;5092119;28;20219;-81
2021/07/12 04:51:43;;;;;;;14.57;13.27;;;17.20;99.90;;;;;;5087254;28;20419;-79
2021/07/12 04:54:09;;;;;;;14.87;13.57;;;17.20;99.90;;;;;;5077149;28;20449;-80
2021/07/12 04:56:35;;;;;;;14.57;13.23;;;17.30;99.90;;;;;;5094087;28;20450;-80
2021/07/12 04:59:04;;;;;;;16.57;14.80;;;17.30;99.90;;;;;;5065809;28;20235;-80
2021/07/12 05:01:34;;;;;;;14.90;13.50;;;17.40;99.90;;;;;;5094429;28;20907;-80
2021/07/12 05:04:06;;;;;;;14.27;12.97;;;17.50;99.90;;;;;;5093258;28;20456;-79
2021/07/12 05:06:33;;;;;;;16.03;14.53;;;17.50;99.90;;;;;;5072456;28;20461;-80
2021/07/12 05:08:58;;;;;;;15.63;14.23;;;17.60;99.90;;;;;;5095138;28;20453;-80
2021/07/12 05:11:26;;;;;;;15.10;13.60;;;17.60;99.90;;;;;;5057282;28;20424;-81
2021/07/12 05:13:52;;;;;;;14.80;13.40;;;17.70;99.90;;;;;;5060353;28;20513;-78
2021/07/12 05:16:19;;;;;;;15.50;14.03;;;17.70;99.90;;;;;;5078183;28;20429;-79
2021/07/12 05:18:45;;;;;;;15.40;14.00;;;17.80;99.90;;;;;;5093429;28;20938;-81
2021/07/12 05:21:10;;;;;;;16.30;14.60;;;17.90;99.90;;;;;;5087257;28;20427;-80
2021/07/12 05:23:38;;;;;;;16.00;14.50;;;17.90;99.90;;;;;;5089017;28;20192;-79
2021/07/12 05:26:05;;;;;;;15.10;13.60;;;17.90;99.90;;;;;;5092885;28;20211;-78
2021/07/12 05:28:31;;;;;;;14.33;13.03;;;18.00;99.90;;;;;;5085007;28;20449;-80
2021/07/12 05:30:57;;;;;;;15.87;14.27;;;18.00;99.90;;;;;;5082679;28;20414;-78
2021/07/12 05:33:22;;;;;;;15.77;14.37;;;18.00;99.90;;;;;;5075165;28;20980;-78
2021/07/12 05:35:48;;;;;;;14.83;13.30;;;18.10;99.90;;;;;;5081002;28;20205;-79
2021/07/12 05:38:14;;;;;;;14.80;13.40;;;18.10;99.90;;;;;;5079509;28;20189;-79
2021/07/12 05:40:40;;;;;;;14.43;13.03;;;18.10;99.90;;;;;;5080310;28;20435;-81
2021/07/12 05:43:08;;;;;;;15.47;13.97;;;18.20;99.90;;;;;;5093780;28;20180;-79
2021/07/12 05:45:34;;;;;;;16.10;14.40;;;18.30;99.90;;;;;;5057091;28;20380;-81
2021/07/12 05:48:00;;;;;;;15.20;13.70;;;18.30;99.90;;;;;;5087041;28;20917;-80
2021/07/12 05:50:25;;;;;;;14.93;13.33;;;18.40;99.90;;;;;;5082279;28;20442;-81
2021/07/12 05:52:51;;;;;;;15.20;13.80;;;18.40;99.90;;;;;;5059620;28;20193;-79
2021/07/12 05:55:17;;;;;;;15.00;13.43;;;18.50;99.90;;;;;;5094718;28;20273;-79
2021/07/12 05:57:42;;;;;;;15.20;13.90;;;18.60;99.90;;;;;;5070017;28;20193;-80
2021/07/12 06:00:11;;;;;;;14.30;13.00;;;18.70;99.90;;;;;;5060087;28;20188;-81
2021/07/12 06:02:37;;;;;;;13.97;12.57;;;18.80;99.90;;;;;;5076701;28;20188;-79
2021/07/12 06:05:04;;;;;;;13.27;11.97;;;18.90;99.90;;;;;;5092611;28;21006;-79
2021/07/12 06:07:29;;;;;;;13.70;12.50;;;18.90;99.90;;;;;;5093412;28;21202;-79
2021/07/12 06:09:55;;;;;;;13.03;11.73;;;19.00;99.90;;;;;;5073017;28;20423;-79
2021/07/12 06:12:21;;;;;;;12.60;11.50;;;19.10;99.90;;;;;;5088296;28;20196;-79
2021/07/12 06:14:46;;;;;;;14.37;12.87;;;19.20;99.90;;;;;;5059027;28;20290;-80
2021/07/12 06:17:12;;;;;;;12.83;11.73;;;19.30;99.90;;;;;;5091483;28;20188;-80
2021/07/12 06:19:38;;;;;;;12.30;11.00;;;19.40;99.90;;;;;;5079637;28;20185;-81
2021/07/12 06:22:04;;;;;;;12.17;11.07;;;19.50;99.90;;;;;;5072174;28;20609;-79
2021/07/12 06:24:30;;;;;;;12.23;10.43;;;19.60;99.90;;;;;;5074050;28;20677;-80
2021/07/12 06:26:56;;;;;;;12.33;11.07;;;19.70;99.90;;;;;;5072281;28;20458;-81
2021/07/12 06:29:22;;;;;;;11.43;10.40;;;19.80;99.90;;;;;;5091429;28;20804;-80
2021/07/12 06:31:49;;;;;;;9.77;8.87;;;20.00;99.90;;;;;;5073529;28;20423;-80
2021/07/12 06:34:15;;;;;;;11.40;10.20;;;20.10;99.90;;;;;;5071678;28;20211;-80
2021/07/12 06:36:40;;;;;;;11.67;10.50;;;20.10;99.90;;;;;;5073340;28;20418;-79
2021/07/12 06:39:06;;;;;;;11.93;10.70;;;20.10;99.90;;;;;;5094115;28;20418;-79
2021/07/12 06:41:32;;;;;;;11.50;10.50;;;20.20;99.90;;;;;;5074749;28;20196;-79
2021/07/12 06:43:58;;;;;;;11.07;9.97;;;20.20;99.90;;;;;;5093309;28;20215;-80
2021/07/12 06:46:24;;;;;;;10.60;9.70;;;20.20;99.90;;;;;;5092480;28;20488;-79
2021/07/12 06:48:49;;;;;;;11.03;10.13;;;20.20;99.90;;;;;;5073099;28;20708;-80
2021/07/12 06:51:16;;;;;;;11.40;10.40;;;20.30;99.90;;;;;;5071426;28;20252;-80
2021/07/12 06:53:42;;;;;;;10.77;9.43;;;20.40;99.90;;;;;;5072364;28;20192;-80
2021/07/12 06:56:08;;;;;;;10.47;9.57;;;20.40;99.90;;;;;;5091458;28;20988;-80
2021/07/12 06:58:33;;;;;;;10.20;9.30;;;20.50;99.90;;;;;;5076111;28;20454;-79
2021/07/12 07:00:59;;;;;;;10.50;9.60;;;20.60;99.90;;;;;;5090948;28;20187;-80
2021/07/12 07:03:25;;;;;;;9.57;8.73;;;20.60;99.90;;;;;;5078259;28;20817;-80
2021/07/12 07:05:50;;;;;;;9.40;8.60;;;20.70;99.90;;;;;;5092503;28;20212;-81
2021/07/12 07:08:16;;;;;;;9.80;8.83;;;20.90;99.90;;;;;;5075972;28;20189;-80
2021/07/12 07:10:42;;;;;;;9.23;8.30;;;21.00;99.90;;;;;;5092831;28;20259;-79
2021/07/12 07:13:08;;;;;;;9.03;8.23;;;21.00;99.90;;;;;;5097391;28;20815;-81
2021/07/12 07:15:34;;;;;;;8.73;8.00;;;21.20;99.90;;;;;;5095919;28;20246;-80
2021/07/12 07:18:00;;;;;;;8.87;8.07;;;21.30;99.90;;;;;;5079415;28;20224;-79
2021/07/12 07:20:26;;;;;;;8.87;8.07;;;21.30;99.90;;;;;;5077607;28;20430;-79
2021/07/12 07:22:52;;;;;;;8.50;7.70;;;21.40;99.90;;;;;;5096500;28;20213;-80
2021/07/12 07:25:17;;;;;;;8.47;7.00;;;21.50;99.90;;;;;;5079375;28;20454;-79
2021/07/12 07:27:44;;;;;;;8.50;7.60;;;21.50;99.90;;;;;;5075921;28;20185;-80
2021/07/12 07:30:11;;;;;;;7.93;7.23;;;21.70;99.90;;;;;;5091815;28;20176;-80
2021/07/12 07:32:37;;;;;;;7.70;7.00;;;21.80;99.90;;;;;;5076143;28;20430;-81
2021/07/12 07:35:04;;;;;;;8.67;7.97;;;22.00;99.90;;;;;;5092477;28;21166;-81
2021/07/12 07:37:30;;;;;;;7.47;6.80;;;22.10;99.90;;;;;;5096253;28;20479;-79
2021/07/12 07:39:56;;;;;;;8.53;7.80;;;22.10;99.90;;;;;;5097930;28;20825;-79
2021/07/12 07:42:23;;;;;;;8.37;7.43;;;22.20;99.90;;;;;;5069837;28;20196;-80
2021/07/12 07:44:48;;;;;;;7.60;7.00;;;22.30;99.90;;;;;;5058853;28;21140;-81
2021/07/12 07:47:15;;;;;;;7.20;6.60;;;22.40;99.90;;;;;;5095852;28;20458;-80
2021/07/12 07:49:41;;;;;;;7.23;6.63;;;22.40;99.90;;;;;;5078777;28;20188;-81
2021/07/12 07:52:07;;;;;;;8.10;7.40;;;22.40;99.90;;;;;;5097320;28;20511;-79
2021/07/12 07:54:33;;;;;;;6.93;6.30;;;22.40;99.90;;;;;;5070680;28;20450;-80
2021/07/12 07:56:59;;;;;;;6.87;6.27;;;22.50;99.90;;;;;;5097255;28;20444;-81
2021/07/12 07:59:24;;;;;;;7.37;6.17;;;22.50;99.90;;;;;;5062849;28;20453;-79
2021/07/12 08:01:50;;;;;;;7.00;6.30;;;22.60;99.90;;;;;;5097353;28;20553;-80
2021/07/12 08:04:16;;;;;;;6.30;5.80;;;22.70;99.90;;;;;;5061537;28;20665;-80
2021/07/12 08:06:42;;;;;;;9.03;6.00;;;22.70;99.90;;;;;;5093319;28;20227;-79
2021/07/12 08:09:07;;;;;;;6.80;6.23;;;22.70;99.90;;;;;;5095881;28;20188;-80
2021/07/12 08:11:33;;;;;;;6.53;5.97;;;22.70;99.90;;;;;;5096854;28;20224;-80
2021/07/12 08:13:59;;;;;;;6.70;6.10;;;22.80;99.90;;;;;;5077887;28;20208;-79
2021/07/12 08:16:25;;;;;;;6.00;5.50;;;22.70;99.90;;;;;;5096310;28;20437;-81
2021/07/12 08:18:51;;;;;;;6.60;6.10;;;22.70;99.90;;;;;;5082889;28;20189;-80
2021/07/12 08:21:17;;;;;;;6.50;6.00;;;22.60;99.90;;;;;;5090709;28;20214;-80
2021/07/12 08:23:42;;;;;;;5.00;4.60;;;22.60;99.90;;;;;;5094274;28;20746;-81
2021/07/12 08:26:12;;;;;;;6.60;6.10;;;22.60;99.90;;;;;;5077908;28;20232;-81
2021/07/12 08:28:39;;;;;;;5.93;5.37;;;22.70;99.90;;;;;;5076268;28;20490;-79
2021/07/12 08:31:05;;;;;;;6.00;5.50;;;22.70;99.90;;;;;;5091457;28;20452;-81
2021/07/12 08:33:31;;;;;;;6.30;5.70;;;22.70;99.90;;;;;;5094626;28;20430;-79
2021/07/12 08:35:56;;;;;;;7.70;6.60;;;22.70;99.90;;;;;;5094148;28;20429;-79
2021/07/12 08:38:22;;;;;;;6.80;6.30;;;22.80;99.90;;;;;;5085683;28;20450;-80
2021/07/12 08:40:49;;;;;;;8.23;7.53;;;22.80;99.90;;;;;;5075295;28;20273;-80
2021/07/12 08:43:16;;;;;;;6.90;6.30;;;22.90;99.90;;;;;;5095129;28;20766;-80
2021/07/12 08:45:42;;;;;;;6.10;5.60;;;22.90;99.90;;;;;;5094437;28;20520;-79
2021/07/12 08:48:08;;;;;;;6.27;5.77;;;22.90;99.90;;;;;;5078003;28;20779;-80
2021/07/12 08:50:34;;;;;;;5.40;5.00;;;23.00;99.90;;;;;;5094625;28;20419;-80
2021/07/12 08:52:59;;;;;;;5.77;5.30;;;23.10;99.90;;;;;;5095342;28;20237;-79
2021/07/12 08:55:26;;;;;;;6.00;5.60;;;23.20;99.90;;;;;;5068125;28;20463;-79
2021/07/12 08:58:06;;;;;;;6.53;6.03;;;23.30;99.90;;;;;;5077375;28;20275;-79
2021/07/12 09:00:53;;;;;;;6.03;5.60;;;23.40;99.90;;;;;;5077670;28;20422;-79
2021/07/12 09:03:20;;;;;;;5.90;5.50;;;23.60;99.90;;;;;;5078960;28;20427;-80
2021/07/12 09:05:52;;;;;;;6.00;5.00;;;23.70;99.90;;;;;;5094406;28;20492;-79
2021/07/12 09:08:45;;;;;;;4.93;4.53;;;23.70;99.90;;;;;;5093427;28;20513;-80
2021/07/12 09:11:13;;;;;;;5.80;5.30;;;23.70;99.90;;;;;;5085427;28;20927;-80
2021/07/12 09:13:55;;;;;;;6.10;5.53;;;23.80;99.90;;;;;;5094593;28;20464;-80
2021/07/12 09:16:41;;;;;;;6.10;5.60;;;23.70;99.90;;;;;;5048003;28;20427;-79
2021/07/12 09:19:39;;;;;;;5.70;5.20;;;23.80;99.90;;;;;;5078405;28;20522;-80
2021/07/12 09:22:08;;;;;;;5.67;5.27;;;23.90;99.90;;;;;;5060147;28;20976;-81
2021/07/12 09:24:55;;;;;;;5.03;4.63;;;23.90;99.90;;;;;;5095315;28;20450;-81
2021/07/12 09:27:29;;;;;;;6.43;5.50;;;23.90;99.90;;;;;;5076042;28;20468;-79
2021/07/12 09:30:04;;;;;;;4.77;4.37;;;24.00;99.90;;;;;;5093728;28;21129;-80
2021/07/12 09:32:33;;;;;;;5.10;4.70;;;24.30;99.90;;;;;;5083200;28;20406;-81
2021/07/12 09:35:02;;;;;;;5.03;4.63;;;24.40;99.90;;;;;;5093967;28;20431;-81
2021/07/12 09:37:29;;;;;;;5.07;4.60;;;24.50;99.90;;;;;;5088587;28;21119;-81
2021/07/12 09:39:56;;;;;;;4.60;4.30;;;24.50;99.90;;;;;;5090425;28;20472;-81
2021/07/12 09:42:31;;;;;;;4.63;4.30;;;24.60;99.90;;;;;;5084631;28;20422;-79
2021/07/12 09:45:02;;;;;;;5.60;5.10;;;24.60;99.90;;;;;;5093107;28;20458;-79
2021/07/12 09:47:30;;;;;;;5.80;5.33;;;24.80;99.90;;;;;;5072999;28;20459;-79
2021/07/12 09:50:06;;;;;;;5.50;5.00;;;24.80;99.90;;;;;;5079015;28;20441;-80
2021/07/12 09:52:48;;;;;;;5.20;4.70;;;24.90;99.90;;;;;;5075844;28;20439;-80
2021/07/12 09:55:24;;;;;;;5.63;5.13;;;25.00;99.90;;;;;;5076432;28;20456;-81
2021/07/12 09:58:13;;;;;;;5.60;5.10;;;25.00;99.90;;;;;;5093269;28;20497;-79
2021/07/12 10:00:46;;;;;;;4.60;4.20;;;25.10;99.90;;;;;;5093418;28;20895;-79
2021/07/12 10:03:13;;;;;;;6.00;5.47;;;25.20;99.90;;;;;;5093813;28;20984;-80
2021/07/12 10:05:38;;;;;;;6.50;4.73;;;25.20;99.90;;;;;;5076897;28;20485;-81
2021/07/12 10:08:06;;;;;;;6.03;5.53;;;25.00;99.90;;;;;;5076698;28;20439;-81
2021/07/12 10:10:32;;;;;;;5.63;5.13;;;24.70;99.90;;;;;;5090853;28;20180;-81
2021/07/12 10:12:58;;;;;;;6.60;6.00;;;24.70;99.90;;;;;;5076862;28;20437;-80
2021/07/12 10:15:23;;;;;;;5.97;5.47;;;24.70;99.90;;;;;;5043287;28;20200;-80
2021/07/12 10:17:49;;;;;;;5.70;5.30;;;24.80;99.90;;;;;;5094803;28;20189;-80
2021/07/12 10:20:16;;;;;;;5.30;4.80;;;25.00;99.90;;;;;;5073232;28;20227;-80
2021/07/12 10:22:42;;;;;;;5.50;5.10;;;25.10;99.90;;;;;;5092058;28;20188;-80
2021/07/12 10:25:12;;;;;;;5.13;4.77;;;25.30;99.90;;;;;;5079585;28;20939;-79
2021/07/12 10:27:59;;;;;;;5.73;5.23;;;25.40;99.90;;;;;;5092318;28;20456;-81
2021/07/12 10:30:29;;;;;;;5.20;4.70;;;25.50;99.90;;;;;;5074581;28;20470;-81
2021/07/12 10:33:09;;;;;;;4.97;4.47;;;25.50;99.90;;;;;;5091086;28;20498;-80
2021/07/12 10:35:47;;;;;;;4.57;4.17;;;25.50;99.90;;;;;;5087071;28;20447;-80
2021/07/12 10:38:37;;;;;;;4.90;4.50;;;25.50;99.90;;;;;;5067596;28;20500;-80
2021/07/12 10:41:23;;;;;;;10.93;6.30;;;25.50;99.90;;;;;;5089155;28;21066;-81
2021/07/12 10:43:57;;;;;;;5.13;4.70;;;25.40;99.90;;;;;;5059907;28;20944;-81
2021/07/12 10:46:30;;;;;;;4.87;4.47;;;25.30;99.90;;;;;;5088909;28;20453;-81
2021/07/12 10:49:04;;;;;;;4.70;4.30;;;25.20;99.90;;;;;;5094603;28;20418;-80
2021/07/12 10:51:40;;;;;;;5.23;4.83;;;25.20;99.90;;;;;;5076199;28;20421;-81
2021/07/12 10:54:11;;;;;;;5.20;4.70;;;25.20;99.90;;;;;;5091752;28;20454;-81
2021/07/12 10:57:00;;;;;;;5.47;4.80;;;25.10;99.90;;;;;;5073503;28;20442;-81
2021/07/12 10:59:34;;;;;;;5.40;4.90;;;25.00;99.90;;;;;;5077119;28;20422;-81
2021/07/12 11:02:03;;;;;;;5.67;5.23;;;25.00;99.90;;;;;;5094706;28;20422;-81
2021/07/12 11:04:45;;;;;;;4.53;4.17;;;25.00;99.90;;;;;;5092539;28;20442;-81
2021/07/12 11:07:14;;;;;;;4.13;3.83;;;25.10;99.90;;;;;;5092490;28;20450;-80
2021/07/12 11:09:56;;;;;;;5.03;4.53;;;25.20;99.90;;;;;;5092493;28;20418;-81
2021/07/12 11:12:32;;;;;;;4.90;4.50;;;25.10;99.90;;;;;;5088924;28;20432;-80
2021/07/12 11:15:15;;;;;;;4.00;3.70;;;25.20;99.90;;;;;;5094235;28;20785;-81
2021/07/12 11:17:53;;;;;;;5.10;4.60;;;25.20;99.90;;;;;;5092797;28;20422;-80
2021/07/12 11:20:51;;;;;;;4.13;3.83;;;25.30;99.90;;;;;;5093514;28;20414;-81
2021/07/12 11:23:46;;;;;;;4.20;3.87;;;25.20;99.20;;;;;;5092722;28;20460;-81
2021/07/12 11:26:20;;;;;;;4.50;4.20;;;25.20;99.90;;;;;;5089011;28;20549;-81
2021/07/12 11:28:58;;;;;;;4.20;3.90;;;25.30;99.90;;;;;;5093919;28;20913;-79
2021/07/12 11:31:44;;;;;;;4.77;4.37;;;25.40;99.20;;;;;;5093174;28;20406;-81
2021/07/12 11:34:19;;;;;;;4.87;4.47;;;25.60;99.90;;;;;;5081021;28;20426;-80
2021/07/12 11:36:54;;;;;;;4.53;4.23;;;25.60;99.50;;;;;;5078409;28;20518;-80
2021/07/12 11:39:21;;;;;;;8.57;4.30;;;25.50;99.90;;;;;;5093481;28;20560;-79
2021/07/12 11:41:47;;;;;;;4.27;3.97;;;25.50;99.90;;;;;;5074336;28;20420;-80
2021/07/12 11:44:15;;;;;;;4.37;4.07;;;25.70;99.90;;;;;;5087746;28;20473;-80
2021/07/12 11:46:42;;;;;;;8.57;5.97;;;25.80;99.90;;;;;;5078935;28;20462;-80
2021/07/12 11:49:16;;;;;;;6.50;5.17;;;25.80;99.90;;;;;;5096581;28;20411;-80
2021/07/12 11:51:43;;;;;;;4.10;3.80;;;25.80;99.90;;;;;;5065631;28;20801;-80
2021/07/12 11:54:20;;;;;;;3.90;3.50;;;25.70;99.30;;;;;;5077936;28;20462;-80
2021/07/12 11:57:10;;;;;;;4.40;4.00;;;25.60;99.20;;;;;;5094654;28;20446;-80
2021/07/12 11:59:37;;;;;;;4.10;3.80;;;25.60;99.90;;;;;;5095492;28;20880;-79
2021/07/12 12:02:11;;;;;;;4.80;4.40;;;25.50;99.90;;;;;;5075501;28;20922;-81
2021/07/12 12:05:01;;;;;;;4.10;3.80;;;25.30;99.80;;;;;;5058337;28;20443;-79
2021/07/12 12:07:27;;;;;;;5.40;4.90;;;25.30;99.90;;;;;;5068466;28;20473;-80
2021/07/12 12:09:55;;;;;;;4.50;4.17;;;25.20;99.70;;;;;;5095191;28;20472;-80
2021/07/12 12:12:35;;;;;;;4.57;4.27;;;25.20;99.30;;;;;;5066198;28;20197;-79
2021/07/12 12:15:10;;;;;;;4.07;3.77;;;25.20;99.60;;;;;;5096104;28;20460;-80
2021/07/12 12:17:40;;;;;;;4.50;4.20;;;25.20;99.90;;;;;;5090717;28;20414;-79
2021/07/12 12:20:08;;;;;;;4.33;3.93;;;25.10;99.90;;;;;;5075922;28;20949;-79
2021/07/12 12:22:33;;;;;;;5.23;4.83;;;25.10;99.90;;;;;;5096405;28;20433;-80
2021/07/12 12:25:01;;;;;;;3.97;3.67;;;25.20;99.90;;;;;;5077365;28;20512;-80
2021/07/12 12:27:27;;;;;;;5.07;4.67;;;25.30;99.90;;;;;;5080960;28;20212;-79
2021/07/12 12:29:52;;;;;;;4.80;4.47;;;25.30;99.90;;;;;;5094684;28;20426;-80
2021/07/12 12:32:57;;;;;;;4.30;4.00;;;25.40;99.90;;;;;;5095980;28;20192;-80
2021/07/12 12:35:26;;;;;;;4.57;4.20;;;25.40;99.60;;;;;;5075541;28;20219;-79
2021/07/12 12:37:53;;;;;;;4.97;4.57;;;25.30;99.50;;;;;;5095982;28;20415;-79
2021/07/12 12:40:23;;;;;;;4.80;4.07;;;25.30;99.90;;;;;;5072934;28;20466;-80
2021/07/12 12:42:51;;;;;;;4.20;3.90;;;25.20;99.90;;;;;;5087048;28;20442;-79
2021/07/12 12:45:47;;;;;;;4.07;3.67;;;25.20;99.80;;;;;;5094032;28;20950;-79
2021/07/12 12:48:32;;;;;;;4.83;3.93;;;25.10;99.90;;;;;;5076837;28;20415;-79
2021/07/12 12:50:59;;;;;;;4.10;3.80;;;25.00;99.90;;;;;;5074113;28;20458;-80
2021/07/12 12:53:31;;;;;;;4.37;4.07;;;24.90;99.90;;;;;;5043063;28;20442;-80